createdAt,value
2024-02-18T00:00:53.949Z,0
2024-02-18T00:02:53.732Z,0
2024-02-18T00:03:53.883Z,0
2024-02-18T00:05:53.763Z,0
2024-02-18T00:06:53.922Z,0
2024-02-18T00:07:53.731Z,0
2024-02-18T00:08:53.764Z,0
2024-02-18T00:10:53.770Z,0
2024-02-18T00:11:53.759Z,0
2024-02-18T00:12:53.759Z,0
2024-02-18T00:13:53.779Z,0
2024-02-18T00:15:53.786Z,0
2024-02-18T00:16:53.827Z,0
2024-02-18T00:17:57.010Z,0
2024-02-18T00:19:00.135Z,0
2024-02-18T00:20:53.906Z,0
2024-02-18T00:21:53.775Z,0
2024-02-18T00:22:53.742Z,0
2024-02-18T00:23:53.733Z,0
2024-02-18T00:24:53.759Z,0
2024-02-18T00:25:53.750Z,0
2024-02-18T00:26:57.619Z,0
2024-02-18T00:27:53.770Z,0
2024-02-18T00:28:53.771Z,0
2024-02-18T00:29:53.733Z,0
2024-02-18T00:30:53.752Z,0
2024-02-18T00:31:53.747Z,0
2024-02-18T00:32:53.934Z,0
2024-02-18T00:34:53.770Z,0
2024-02-18T00:35:53.730Z,0
2024-02-18T00:36:53.966Z,0
2024-02-18T00:37:55.318Z,0
2024-02-18T00:38:56.984Z,0
2024-02-18T00:40:00.145Z,0
2024-02-18T00:41:53.925Z,0
2024-02-18T00:42:53.748Z,0
2024-02-18T00:43:53.757Z,0
2024-02-18T00:44:53.737Z,0
2024-02-18T00:45:53.750Z,0
2024-02-18T00:46:57.544Z,0
2024-02-18T00:47:53.872Z,0
2024-02-18T00:48:53.842Z,0
2024-02-18T00:49:53.796Z,0
2024-02-18T00:50:53.720Z,0
2024-02-18T00:51:53.799Z,0
2024-02-18T00:52:53.730Z,0
2024-02-18T00:53:53.749Z,0
2024-02-18T00:54:53.782Z,0
2024-02-18T00:55:53.747Z,0
2024-02-18T00:56:53.720Z,0
2024-02-18T00:57:53.766Z,0
2024-02-18T00:58:54.008Z,0
2024-02-18T00:59:57.117Z,0
2024-02-18T01:01:00.235Z,0
2024-02-18T01:02:54.066Z,0
2024-02-18T01:04:53.850Z,0
2024-02-18T01:06:53.788Z,0
2024-02-18T01:07:53.739Z,0
2024-02-18T01:09:53.820Z,0
2024-02-18T01:11:53.745Z,0
2024-02-18T01:12:53.803Z,0
2024-02-18T01:13:53.736Z,0
2024-02-18T01:14:53.783Z,0
2024-02-18T01:16:53.740Z,0
2024-02-18T01:17:53.785Z,0
2024-02-18T01:18:53.878Z,0
2024-02-18T01:19:54.257Z,0
2024-02-18T01:20:57.192Z,0
2024-02-18T01:22:00.549Z,0
2024-02-18T01:23:54.119Z,0
2024-02-18T01:25:53.756Z,0
2024-02-18T01:26:53.789Z,0
2024-02-18T01:27:53.756Z,0
2024-02-18T01:28:53.764Z,0
2024-02-18T01:30:53.748Z,0
2024-02-18T01:31:53.741Z,0
2024-02-18T01:32:53.799Z,0
2024-02-18T01:33:53.895Z,0
2024-02-18T01:35:53.734Z,0
2024-02-18T01:36:53.752Z,0
2024-02-18T01:37:53.730Z,0
2024-02-18T01:38:53.744Z,0
2024-02-18T01:40:54.176Z,0
2024-02-18T01:41:57.236Z,0
2024-02-18T01:43:00.555Z,0
2024-02-18T01:44:53.729Z,0
2024-02-18T01:45:53.748Z,0
2024-02-18T01:47:53.743Z,0
2024-02-18T01:48:53.924Z,0
2024-02-18T01:50:53.769Z,0
2024-02-18T01:51:53.757Z,0
2024-02-18T01:52:53.731Z,0
2024-02-18T01:53:53.741Z,0
2024-02-18T01:54:53.775Z,0
2024-02-18T01:56:53.723Z,0
2024-02-18T01:57:53.767Z,0
2024-02-18T01:58:53.740Z,0
2024-02-18T01:59:53.742Z,0
2024-02-18T02:00:53.836Z,0
2024-02-18T02:01:54.435Z,0
2024-02-18T02:02:57.481Z,0
2024-02-18T02:04:00.626Z,0
2024-02-18T02:05:53.783Z,0
2024-02-18T02:06:53.792Z,0
2024-02-18T02:07:53.730Z,0
2024-02-18T02:08:53.728Z,0
2024-02-18T02:09:53.782Z,0
2024-02-18T02:10:53.745Z,0
2024-02-18T02:11:53.737Z,0
2024-02-18T02:12:53.772Z,0
2024-02-18T02:13:53.794Z,0
2024-02-18T02:15:53.863Z,0
2024-02-18T02:17:53.747Z,0
2024-02-18T02:18:53.894Z,0
2024-02-18T02:19:53.807Z,0
2024-02-18T02:20:53.727Z,0
2024-02-18T02:21:53.757Z,0
2024-02-18T02:22:54.455Z,0
2024-02-18T02:23:57.574Z,0
2024-02-18T02:25:00.906Z,0
2024-02-18T02:26:53.742Z,0
2024-02-18T02:27:53.729Z,0
2024-02-18T02:28:53.736Z,0
2024-02-18T02:29:53.726Z,0
2024-02-18T02:31:55.448Z,0
2024-02-18T02:33:53.760Z,0
2024-02-18T02:34:53.777Z,0
2024-02-18T02:35:53.743Z,0
2024-02-18T02:36:54.097Z,0
2024-02-18T02:38:56.477Z,0
2024-02-18T02:39:53.762Z,0
2024-02-18T02:40:53.718Z,0
2024-02-18T02:41:53.728Z,0
2024-02-18T02:42:53.739Z,0
2024-02-18T02:43:54.486Z,0
2024-02-18T02:44:57.607Z,0
2024-02-18T02:46:00.758Z,0
2024-02-18T02:47:53.908Z,0
2024-02-18T02:48:53.843Z,0
2024-02-18T02:49:53.775Z,0
2024-02-18T02:51:53.728Z,0
2024-02-18T02:52:53.742Z,0
2024-02-18T02:53:53.725Z,0
2024-02-18T02:54:53.779Z,0
2024-02-18T02:56:53.722Z,0
2024-02-18T02:57:53.987Z,0
2024-02-18T02:59:53.775Z,0
2024-02-18T03:01:53.777Z,0
2024-02-18T03:02:53.737Z,0
2024-02-18T03:03:53.866Z,0
2024-02-18T03:04:54.734Z,0
2024-02-18T03:05:57.755Z,0
2024-02-18T03:07:00.810Z,0
2024-02-18T03:08:53.743Z,0
2024-02-18T03:09:53.812Z,0
2024-02-18T03:11:53.738Z,0
2024-02-18T03:12:53.726Z,0
2024-02-18T03:13:53.738Z,0
2024-02-18T03:14:53.787Z,0
2024-02-18T03:16:53.737Z,0
2024-02-18T03:18:54.127Z,0
2024-02-18T03:20:53.728Z,0
2024-02-18T03:21:53.737Z,0
2024-02-18T03:22:53.723Z,0
2024-02-18T03:23:53.722Z,0
2024-02-18T03:24:53.773Z,0
2024-02-18T03:25:54.685Z,0
2024-02-18T03:26:57.846Z,0
2024-02-18T03:28:01.011Z,0
2024-02-18T03:29:53.721Z,0
2024-02-18T03:30:53.756Z,0
2024-02-18T03:31:53.739Z,0
2024-02-18T03:33:53.997Z,0
2024-02-18T03:35:53.739Z,0
2024-02-18T03:36:53.772Z,0
2024-02-18T03:37:53.737Z,0
2024-02-18T03:38:53.906Z,0
2024-02-18T03:39:54.254Z,0
2024-02-18T03:41:53.747Z,0
2024-02-18T03:42:53.760Z,0
2024-02-18T03:43:53.739Z,0
2024-02-18T03:44:53.735Z,0
2024-02-18T03:45:53.784Z,0
2024-02-18T03:46:54.800Z,0
2024-02-18T03:47:58.002Z,0
2024-02-18T03:49:01.053Z,0
2024-02-18T03:50:53.747Z,0
2024-02-18T03:51:53.794Z,0
2024-02-18T03:52:53.741Z,0
2024-02-18T03:54:53.783Z,0
2024-02-18T03:56:53.742Z,0
2024-02-18T03:57:53.763Z,0
2024-02-18T03:58:53.764Z,0
2024-02-18T03:59:53.768Z,0
2024-02-18T04:00:53.788Z,0
2024-02-18T04:02:53.735Z,0
2024-02-18T04:03:53.855Z,0
2024-02-18T04:05:53.802Z,0
2024-02-18T04:06:53.764Z,0
2024-02-18T04:07:54.917Z,0
2024-02-18T04:08:57.991Z,0
2024-02-18T04:10:00.923Z,0
2024-02-18T04:11:53.796Z,0
2024-02-18T04:12:53.768Z,0
2024-02-18T04:13:53.727Z,0
2024-02-18T04:14:53.724Z,0
2024-02-18T04:15:53.758Z,0
2024-02-18T04:16:54.101Z,0
2024-02-18T04:18:53.805Z,0
2024-02-18T04:19:53.804Z,0
2024-02-18T04:20:53.757Z,0
2024-02-18T04:22:53.731Z,0
2024-02-18T04:23:53.727Z,0
2024-02-18T04:24:53.754Z,0
2024-02-18T04:25:53.766Z,0
2024-02-18T04:27:53.776Z,0
2024-02-18T04:28:53.732Z,0
2024-02-18T04:30:55.516Z,0
2024-02-18T04:31:58.540Z,0
2024-02-18T04:33:53.809Z,0
2024-02-18T04:34:53.781Z,0
2024-02-18T04:35:53.743Z,0
2024-02-18T04:36:53.777Z,0
2024-02-18T04:37:54.123Z,0
2024-02-18T04:39:53.738Z,0
2024-02-18T04:40:53.731Z,0
2024-02-18T04:41:53.745Z,0
2024-02-18T04:43:53.747Z,0
2024-02-18T04:44:53.738Z,0
2024-02-18T04:46:53.744Z,0
2024-02-18T04:47:53.829Z,0
2024-02-18T04:49:53.783Z,0
2024-02-18T04:50:53.734Z,0
2024-02-18T04:51:55.493Z,0
2024-02-18T04:52:58.592Z,0
2024-02-18T04:54:53.765Z,0
2024-02-18T04:55:53.789Z,0
2024-02-18T04:57:53.795Z,0
2024-02-18T04:58:53.753Z,0
2024-02-18T05:00:53.794Z,0
2024-02-18T05:01:53.767Z,0
2024-02-18T05:02:53.751Z,0
2024-02-18T05:03:53.765Z,0
2024-02-18T05:04:53.800Z,0
2024-02-18T05:06:53.773Z,0
2024-02-18T05:07:53.734Z,0
2024-02-18T05:08:53.819Z,0
2024-02-18T05:10:53.748Z,0
2024-02-18T05:11:53.734Z,0
2024-02-18T05:12:55.620Z,0
2024-02-18T05:13:58.707Z,0
2024-02-18T05:15:53.761Z,0
2024-02-18T05:16:53.737Z,0
2024-02-18T05:17:53.808Z,0
2024-02-18T05:18:53.833Z,0
2024-02-18T05:20:53.735Z,0
2024-02-18T05:21:53.726Z,0
2024-02-18T05:22:53.745Z,0
2024-02-18T05:23:53.742Z,0
2024-02-18T05:24:53.772Z,0
2024-02-18T05:25:53.765Z,0
2024-02-18T05:27:53.782Z,0
2024-02-18T05:28:53.734Z,0
2024-02-18T05:29:53.860Z,0
2024-02-18T05:31:53.727Z,0
2024-02-18T05:32:53.764Z,0
2024-02-18T05:33:56.279Z,0
2024-02-18T05:34:58.766Z,0
2024-02-18T05:36:53.763Z,0
2024-02-18T05:37:53.732Z,0
2024-02-18T05:38:53.741Z,0
2024-02-18T05:39:53.763Z,0
2024-02-18T05:40:53.751Z,0
2024-02-18T05:42:53.792Z,0
2024-02-18T05:43:53.727Z,0
2024-02-18T05:44:53.742Z,0
2024-02-18T05:45:53.788Z,0
2024-02-18T05:47:53.827Z,0
2024-02-18T05:48:53.916Z,0
2024-02-18T05:49:53.802Z,0
2024-02-18T05:50:53.982Z,0
2024-02-18T05:52:53.744Z,0
2024-02-18T05:53:53.727Z,0
2024-02-18T05:54:55.918Z,0
2024-02-18T05:55:58.902Z,0
2024-02-18T05:57:53.799Z,0.23
2024-02-18T05:58:53.720Z,0.23
2024-02-18T05:59:53.733Z,0.23
2024-02-18T06:00:53.877Z,0.23
2024-02-18T06:02:53.726Z,0.46
2024-02-18T06:03:53.745Z,0.69
2024-02-18T06:04:53.825Z,0.92
2024-02-18T06:05:53.838Z,1.15
2024-02-18T06:06:53.818Z,1.38
2024-02-18T06:07:53.765Z,1.61
2024-02-18T06:09:53.758Z,2.53
2024-02-18T06:10:53.872Z,2.99
2024-02-18T06:11:54.084Z,3.91
2024-02-18T06:13:53.730Z,5.52
2024-02-18T06:14:53.744Z,6.67
2024-02-18T06:15:55.935Z,8.05
2024-02-18T06:16:58.953Z,9.43
2024-02-18T06:18:53.850Z,13.33
2024-02-18T06:19:53.762Z,15.83
2024-02-18T06:20:53.725Z,18.33
2024-02-18T06:21:53.787Z,20.83
2024-02-18T06:23:53.951Z,28.33
2024-02-18T06:24:54.056Z,33.33
2024-02-18T06:25:54.053Z,38.33
2024-02-18T06:27:53.755Z,50.83
2024-02-18T06:28:53.736Z,57.5
2024-02-18T06:29:53.727Z,65.83
2024-02-18T06:30:53.775Z,75
2024-02-18T06:31:53.729Z,85.83
2024-02-18T06:32:54.199Z,97.5
2024-02-18T06:34:53.819Z,121.67
2024-02-18T06:35:53.723Z,135
2024-02-18T06:36:56.046Z,146.67
2024-02-18T06:37:59.394Z,155
2024-02-18T06:39:53.777Z,169.17
2024-02-18T06:40:53.754Z,175
2024-02-18T06:42:53.803Z,191.67
2024-02-18T06:43:53.719Z,205
2024-02-18T06:44:53.733Z,220.83
2024-02-18T06:45:53.737Z,239.17
2024-02-18T06:46:53.777Z,259.17
2024-02-18T06:47:53.782Z,279.17
2024-02-18T06:49:53.878Z,325
2024-02-18T06:50:53.803Z,351.67
2024-02-18T06:51:53.777Z,380
2024-02-18T06:52:53.774Z,412.5
2024-02-18T06:54:53.737Z,478.33
2024-02-18T06:55:53.743Z,512.5
2024-02-18T06:56:53.748Z,550.83
2024-02-18T06:57:56.179Z,590
2024-02-18T06:59:01.061Z,628.33
2024-02-18T07:00:53.773Z,696.67
2024-02-18T07:01:53.757Z,728.33
2024-02-18T07:02:53.725Z,757.5
2024-02-18T07:03:53.822Z,789.17
2024-02-18T07:04:53.806Z,821.67
2024-02-18T07:05:53.764Z,858.33
2024-02-18T07:06:53.766Z,902.5
2024-02-18T07:08:53.726Z,996.67
2024-02-18T07:09:53.746Z,1042.5
2024-02-18T07:10:53.787Z,1090.83
2024-02-18T07:11:53.753Z,1137.5
2024-02-18T07:13:53.737Z,1226.67
2024-02-18T07:14:53.720Z,1279.17
2024-02-18T07:15:53.852Z,1340
2024-02-18T07:16:53.754Z,1404.17
2024-02-18T07:18:56.382Z,1530.83
2024-02-18T07:19:59.480Z,1591.67
2024-02-18T07:21:53.777Z,1736.67
2024-02-18T07:22:53.728Z,1818.33
2024-02-18T07:23:53.728Z,1900
2024-02-18T07:25:53.726Z,2045.83
2024-02-18T07:26:53.744Z,2109.17
2024-02-18T07:28:53.836Z,2201.67
2024-02-18T07:30:53.761Z,2235.83
2024-02-18T07:31:53.745Z,2230.83
2024-02-18T07:33:53.839Z,2194.17
2024-02-18T07:34:53.761Z,2176.67
2024-02-18T07:35:53.728Z,2168.33
2024-02-18T07:36:53.752Z,2174.17
2024-02-18T07:38:53.725Z,2199.17
2024-02-18T07:39:56.298Z,2223.33
2024-02-18T07:40:59.334Z,2257.5
2024-02-18T07:42:53.764Z,2325
2024-02-18T07:43:53.735Z,2360.83
2024-02-18T07:44:53.736Z,2418.33
2024-02-18T07:46:53.741Z,2445.83
2024-02-18T07:47:53.797Z,2455
2024-02-18T07:48:53.812Z,2478.33
2024-02-18T07:49:54.093Z,2503.33
2024-02-18T07:51:53.769Z,2552.5
2024-02-18T07:52:53.747Z,2566.67
2024-02-18T07:53:53.724Z,2575.83
2024-02-18T07:54:53.805Z,2580.83
2024-02-18T07:55:53.721Z,2585
2024-02-18T07:56:53.741Z,2589.17
2024-02-18T07:58:53.734Z,2590
2024-02-18T08:00:53.754Z,2595.83
2024-02-18T08:01:56.630Z,2594.17
2024-02-18T08:02:59.503Z,2583.33
2024-02-18T08:04:53.765Z,2547.5
2024-02-18T08:05:53.791Z,2544.17
2024-02-18T08:06:53.841Z,2555.83
2024-02-18T08:07:53.733Z,2575
2024-02-18T08:08:53.751Z,2595
2024-02-18T08:10:53.727Z,2637.5
2024-02-18T08:11:54.066Z,2650.83
2024-02-18T08:13:53.733Z,2646.67
2024-02-18T08:14:53.746Z,2651.67
2024-02-18T08:15:53.746Z,2660.83
2024-02-18T08:16:53.749Z,2670
2024-02-18T08:17:53.759Z,2683.33
2024-02-18T08:18:53.868Z,2708.33
2024-02-18T08:19:53.759Z,2754.17
2024-02-18T08:20:53.742Z,2809.17
2024-02-18T08:21:53.770Z,2865
2024-02-18T08:22:56.701Z,2915.83
2024-02-18T08:23:59.628Z,2961.67
2024-02-18T08:25:53.735Z,3020
2024-02-18T08:26:55.460Z,3030
2024-02-18T08:28:53.730Z,3074.17
2024-02-18T08:30:53.774Z,3171.67
2024-02-18T08:32:53.736Z,3199.17
2024-02-18T08:33:53.832Z,3198.33
2024-02-18T08:34:53.778Z,3185
2024-02-18T08:35:53.726Z,3196.67
2024-02-18T08:36:53.763Z,3237.5
2024-02-18T08:37:53.732Z,3291.67
2024-02-18T08:39:53.835Z,3389.17
2024-02-18T08:40:53.727Z,3430
2024-02-18T08:41:53.733Z,3477.5
2024-02-18T08:43:56.607Z,3561.67
2024-02-18T08:44:59.632Z,3601.67
2024-02-18T08:46:53.745Z,3639.17
2024-02-18T08:47:53.747Z,3602.5
2024-02-18T08:48:53.912Z,3582.5
2024-02-18T08:49:53.785Z,3554.17
2024-02-18T08:50:53.731Z,3535.83
2024-02-18T08:51:53.755Z,3489.17
2024-02-18T08:52:53.732Z,3432.5
2024-02-18T08:53:53.723Z,3398.33
2024-02-18T08:54:53.778Z,3367.5
2024-02-18T08:55:53.742Z,3321.67
2024-02-18T08:56:53.736Z,3288.33
2024-02-18T08:57:53.807Z,3307.5
2024-02-18T08:58:53.726Z,3354.17
2024-02-18T08:59:53.740Z,3410
2024-02-18T09:00:53.794Z,3449.17
2024-02-18T09:01:53.777Z,3495
2024-02-18T09:02:53.740Z,3540
2024-02-18T09:04:56.842Z,3646.67
2024-02-18T09:05:59.810Z,3685
2024-02-18T09:07:53.836Z,3664.17
2024-02-18T09:08:53.723Z,3652.5
2024-02-18T09:09:53.772Z,3660
2024-02-18T09:10:53.769Z,3665.83
2024-02-18T09:11:53.723Z,3668.33
2024-02-18T09:12:53.748Z,3710.83
2024-02-18T09:13:53.728Z,3727.5
2024-02-18T09:15:53.754Z,3825.83
2024-02-18T09:16:53.741Z,3887.5
2024-02-18T09:17:53.741Z,3945.83
2024-02-18T09:18:53.901Z,4000
2024-02-18T09:19:53.837Z,4052.5
2024-02-18T09:20:53.745Z,4109.17
2024-02-18T09:21:53.806Z,4178.33
2024-02-18T09:22:53.744Z,4238.33
2024-02-18T09:23:53.734Z,4289.17
2024-02-18T09:24:53.805Z,4341.67
2024-02-18T09:25:56.882Z,4402.5
2024-02-18T09:26:59.946Z,4479.17
2024-02-18T09:28:53.847Z,4615
2024-02-18T09:29:53.741Z,4660
2024-02-18T09:30:53.812Z,4698.33
2024-02-18T09:31:53.802Z,4732.5
2024-02-18T09:33:53.814Z,4847.5
2024-02-18T09:34:53.941Z,4905
2024-02-18T09:35:53.864Z,4948.33
2024-02-18T09:36:53.825Z,4964.17
2024-02-18T09:38:53.723Z,4845
2024-02-18T09:39:53.765Z,4755
2024-02-18T09:41:53.724Z,4716.67
2024-02-18T09:42:53.738Z,4780.83
2024-02-18T09:43:53.745Z,4790
2024-02-18T09:44:53.723Z,4774.17
2024-02-18T09:45:53.869Z,4770.83
2024-02-18T09:46:56.881Z,4780
2024-02-18T09:48:00.188Z,4752.5
2024-02-18T09:49:53.961Z,4635
2024-02-18T09:50:53.735Z,4506.67
2024-02-18T09:52:53.738Z,4353.33
2024-02-18T09:53:53.734Z,4328.33
2024-02-18T09:54:53.798Z,4348.33
2024-02-18T09:55:53.739Z,4395.83
2024-02-18T09:56:53.738Z,4450
2024-02-18T09:57:53.752Z,4505
2024-02-18T09:58:53.743Z,4480
2024-02-18T09:59:53.728Z,4422.5
2024-02-18T10:00:53.771Z,4360
2024-02-18T10:01:53.802Z,4329.17
2024-02-18T10:02:53.755Z,4305
2024-02-18T10:03:53.796Z,4314.17
2024-02-18T10:04:53.779Z,4395.83
2024-02-18T10:05:53.759Z,4494.17
2024-02-18T10:06:54.105Z,4556.67
2024-02-18T10:07:57.010Z,4550
2024-02-18T10:09:00.095Z,4472.5
2024-02-18T10:10:54.108Z,4330.83
2024-02-18T10:11:53.726Z,4258.33
2024-02-18T10:12:53.722Z,4166.67
2024-02-18T10:13:53.724Z,4111.67
2024-02-18T10:14:53.751Z,4130.83
2024-02-18T10:16:53.726Z,4204.17
2024-02-18T10:17:53.768Z,4193.33
2024-02-18T10:18:53.785Z,4135
2024-02-18T10:19:53.917Z,4100
2024-02-18T10:21:53.839Z,4144.17
2024-02-18T10:23:53.734Z,4118.33
2024-02-18T10:24:53.763Z,4035
2024-02-18T10:26:53.733Z,3850.83
2024-02-18T10:27:54.108Z,3777.5
2024-02-18T10:28:57.074Z,3708.33
2024-02-18T10:30:00.196Z,3706.67
2024-02-18T10:31:54.139Z,3975
2024-02-18T10:33:53.797Z,4170
2024-02-18T10:34:53.858Z,4138.33
2024-02-18T10:36:53.791Z,3966.67
2024-02-18T10:37:53.743Z,3926.67
2024-02-18T10:38:53.740Z,3980.83
2024-02-18T10:39:53.759Z,3985
2024-02-18T10:40:53.742Z,3901.67
2024-02-18T10:41:53.749Z,3830
2024-02-18T10:42:53.768Z,3852.5
2024-02-18T10:43:53.736Z,3905.83
2024-02-18T10:44:53.738Z,3939.17
2024-02-18T10:45:53.758Z,3940
2024-02-18T10:46:53.723Z,3870.83
2024-02-18T10:47:53.741Z,3792.5
2024-02-18T10:48:54.229Z,3764.17
2024-02-18T10:49:57.347Z,3716.67
2024-02-18T10:51:00.627Z,3640
2024-02-18T10:52:54.121Z,3594.17
2024-02-18T10:54:53.784Z,3697.5
2024-02-18T10:55:53.727Z,3638.33
2024-02-18T10:56:53.729Z,3581.67
2024-02-18T10:57:54.145Z,3583.33
2024-02-18T10:58:53.726Z,3635
2024-02-18T10:59:53.722Z,3671.67
2024-02-18T11:00:53.804Z,3680
2024-02-18T11:01:53.794Z,3690.83
2024-02-18T11:03:53.785Z,3624.17
2024-02-18T11:04:53.750Z,3557.5
2024-02-18T11:05:53.863Z,3517.5
2024-02-18T11:06:53.798Z,3492.5
2024-02-18T11:07:53.748Z,3502.5
2024-02-18T11:08:53.721Z,3488.33
2024-02-18T11:09:54.195Z,3475
2024-02-18T11:10:57.355Z,3510.83
2024-02-18T11:12:00.673Z,3485
2024-02-18T11:13:53.728Z,3244.17
2024-02-18T11:14:53.736Z,3136.67
2024-02-18T11:15:53.760Z,3040
2024-02-18T11:16:53.728Z,2940
2024-02-18T11:17:53.804Z,2871.67
2024-02-18T11:19:53.828Z,2728.33
2024-02-18T11:20:53.726Z,2669.17
2024-02-18T11:21:53.924Z,2579.17
2024-02-18T11:23:53.725Z,2506.67
2024-02-18T11:24:53.788Z,2500.83
2024-02-18T11:25:53.724Z,2516.67
2024-02-18T11:26:53.774Z,2526.67
2024-02-18T11:28:53.731Z,2570
2024-02-18T11:30:54.386Z,2711.67
2024-02-18T11:31:57.384Z,2814.17
2024-02-18T11:33:00.872Z,2887.5
2024-02-18T11:34:53.777Z,3128.33
2024-02-18T11:36:53.782Z,3502.5
2024-02-18T11:37:53.726Z,3670.83
2024-02-18T11:38:53.722Z,3772.5
2024-02-18T11:39:53.776Z,3850.83
2024-02-18T11:40:53.738Z,3915
2024-02-18T11:41:53.905Z,3945
2024-02-18T11:43:53.740Z,3972.5
2024-02-18T11:44:53.731Z,3964.17
2024-02-18T11:45:53.731Z,3900
2024-02-18T11:46:53.753Z,3804.17
2024-02-18T11:48:53.814Z,3798.33
2024-02-18T11:49:53.829Z,3778.33
2024-02-18T11:50:53.749Z,3735.83
2024-02-18T11:51:54.466Z,3705
2024-02-18T11:53:57.642Z,3595.83
2024-02-18T11:55:01.107Z,3557.5
2024-02-18T11:56:53.763Z,3615.83
2024-02-18T11:57:53.819Z,3665
2024-02-18T11:58:53.729Z,3647.5
2024-02-18T11:59:53.767Z,3586.67
2024-02-18T12:00:53.880Z,3526.67
2024-02-18T12:01:53.821Z,3461.67
2024-02-18T12:03:53.791Z,3360.83
2024-02-18T12:04:53.745Z,3295
2024-02-18T12:05:53.758Z,3210
2024-02-18T12:06:53.758Z,3175
2024-02-18T12:08:53.719Z,3240
2024-02-18T12:09:53.761Z,3260.83
2024-02-18T12:10:53.803Z,3246.67
2024-02-18T12:11:53.737Z,3189.17
2024-02-18T12:12:53.772Z,3080.83
2024-02-18T12:13:54.477Z,2972.5
2024-02-18T12:14:57.213Z,2948.33
2024-02-18T12:16:00.776Z,2986.67
2024-02-18T12:17:54.186Z,3189.17
2024-02-18T12:19:53.878Z,3385
2024-02-18T12:20:53.732Z,3427.5
2024-02-18T12:21:53.743Z,3456.67
2024-02-18T12:22:53.747Z,3520
2024-02-18T12:24:53.778Z,3758.33
2024-02-18T12:25:53.745Z,3903.33
2024-02-18T12:26:53.750Z,3977.5
2024-02-18T12:27:54.110Z,4037.5
2024-02-18T12:29:53.827Z,4239.17
2024-02-18T12:31:53.751Z,4622.5
2024-02-18T12:32:55.794Z,4920.83
2024-02-18T12:33:53.826Z,5176.67
2024-02-18T12:34:55.038Z,5231.67
2024-02-18T12:35:57.824Z,5224.17
2024-02-18T12:37:00.999Z,5270.83
2024-02-18T12:38:53.767Z,5250.83
2024-02-18T12:39:53.778Z,5469.17
2024-02-18T12:40:53.736Z,5755.83
2024-02-18T12:41:53.724Z,5854.17
2024-02-18T12:43:04.272Z,5575.83
2024-02-18T12:44:10.442Z,5120
2024-02-18T12:45:22.835Z,4865
2024-02-18T12:45:56.669Z,4863.33
2024-02-18T12:46:53.815Z,4960
2024-02-18T12:47:53.783Z,5150
2024-02-18T12:48:54.234Z,5349.17
2024-02-18T12:50:53.747Z,5900.83
2024-02-18T12:51:53.752Z,6136.67
2024-02-18T12:52:53.723Z,6267.5
2024-02-18T12:53:53.758Z,6280.83
2024-02-18T12:54:53.778Z,6594.17
2024-02-18T12:55:55.018Z,6984.17
2024-02-18T12:56:57.968Z,7310.83
2024-02-18T12:58:01.056Z,7358.33
2024-02-18T12:59:53.750Z,6314.17
2024-02-18T13:01:53.827Z,5454.17
2024-02-18T13:03:54.055Z,4839.17
2024-02-18T13:04:53.865Z,4533.33
2024-02-18T13:06:53.760Z,4316.67
2024-02-18T13:07:53.729Z,4645.83
2024-02-18T13:08:53.739Z,5256.67
2024-02-18T13:09:53.790Z,5868.33
2024-02-18T13:11:53.735Z,6513.33
2024-02-18T13:12:53.764Z,6772.5
2024-02-18T13:13:53.742Z,6790
2024-02-18T13:14:53.760Z,6735.83
2024-02-18T13:16:54.879Z,6549.17
2024-02-18T13:17:58.112Z,6415.83
2024-02-18T13:19:00.952Z,6339.17
2024-02-18T13:20:53.733Z,6353.33
2024-02-18T13:21:53.754Z,6400
2024-02-18T13:23:53.780Z,6251.67
2024-02-18T13:25:53.728Z,5715.83
2024-02-18T13:26:53.744Z,5424.17
2024-02-18T13:27:53.817Z,5131.67
2024-02-18T13:28:53.847Z,4935.83
2024-02-18T13:29:53.744Z,4836.67
2024-02-18T13:30:53.790Z,4746.67
2024-02-18T13:31:53.749Z,4611.67
2024-02-18T13:32:53.783Z,4455
2024-02-18T13:33:53.777Z,4284.17
2024-02-18T13:34:53.884Z,4139.17
2024-02-18T13:35:53.730Z,4022.5
2024-02-18T13:36:53.775Z,3912.5
2024-02-18T13:37:55.060Z,3778.33
2024-02-18T13:38:58.239Z,3545.83
2024-02-18T13:40:53.741Z,2826.67
2024-02-18T13:41:53.766Z,2614.17
2024-02-18T13:43:53.727Z,2465.83
2024-02-18T13:44:53.845Z,2463.33
2024-02-18T13:46:53.756Z,2889.17
2024-02-18T13:48:53.831Z,3736.67
2024-02-18T13:49:53.893Z,4147.5
2024-02-18T13:50:53.737Z,4585.83
2024-02-18T13:51:53.778Z,4909.17
2024-02-18T13:52:53.769Z,4922.5
2024-02-18T13:53:53.748Z,4720
2024-02-18T13:54:53.742Z,4507.5
2024-02-18T13:55:53.741Z,4355
2024-02-18T13:56:53.751Z,4153.33
2024-02-18T13:58:55.074Z,3592.5
2024-02-18T13:59:58.228Z,3320.83
2024-02-18T14:01:53.787Z,2760.83
2024-02-18T14:02:54.987Z,2462.5
2024-02-18T14:04:53.725Z,2078.33
2024-02-18T14:05:53.951Z,1958.33
2024-02-18T14:07:53.736Z,1896.67
2024-02-18T14:08:55.458Z,1893.33
2024-02-18T14:09:53.824Z,1911.67
2024-02-18T14:10:53.818Z,1916.67
2024-02-18T14:11:53.729Z,1934.17
2024-02-18T14:12:53.742Z,1962.5
2024-02-18T14:13:53.740Z,1938.33
2024-02-18T14:14:53.768Z,1859.17
2024-02-18T14:15:53.781Z,1752.5
2024-02-18T14:17:53.747Z,1892.5
2024-02-18T14:18:53.909Z,1991.67
2024-02-18T14:19:55.412Z,1934.17
2024-02-18T14:20:58.346Z,1860
2024-02-18T14:22:53.755Z,1795.83
2024-02-18T14:23:53.730Z,1801.67
2024-02-18T14:25:53.777Z,1685
2024-02-18T14:26:53.998Z,1618.33
2024-02-18T14:28:53.737Z,1734.17
2024-02-18T14:29:53.725Z,1726.67
2024-02-18T14:31:53.743Z,1492.5
2024-02-18T14:33:53.915Z,1406.67
2024-02-18T14:34:53.908Z,1384.17
2024-02-18T14:35:53.734Z,1329.17
2024-02-18T14:36:53.818Z,1262.5
2024-02-18T14:38:56.193Z,1314.17
2024-02-18T14:39:53.807Z,1405
2024-02-18T14:40:55.291Z,1480
2024-02-18T14:41:58.446Z,1522.5
2024-02-18T14:43:53.722Z,1555.83
2024-02-18T14:44:55.749Z,1597.5
2024-02-18T14:46:53.752Z,1810
2024-02-18T14:47:54.108Z,1954.17
2024-02-18T14:49:53.825Z,2296.67
2024-02-18T14:50:53.725Z,2453.33
2024-02-18T14:51:53.757Z,2585.83
2024-02-18T14:53:53.732Z,2654.17
2024-02-18T14:54:53.766Z,2707.5
2024-02-18T14:56:53.740Z,2578.33
2024-02-18T14:58:53.757Z,2449.17
2024-02-18T14:59:53.738Z,2366.67
2024-02-18T15:00:53.805Z,2182.5
2024-02-18T15:01:55.458Z,2100
2024-02-18T15:02:58.584Z,2076.67
2024-02-18T15:04:54.338Z,1818.33
2024-02-18T15:05:53.925Z,1661.67
2024-02-18T15:06:53.920Z,1634.17
2024-02-18T15:07:53.802Z,1589.17
2024-02-18T15:08:54.111Z,1533.33
2024-02-18T15:10:53.738Z,1322.5
2024-02-18T15:11:53.730Z,1255
2024-02-18T15:12:53.792Z,1113.33
2024-02-18T15:13:53.722Z,981.67
2024-02-18T15:14:53.751Z,910
2024-02-18T15:16:53.724Z,815.83
2024-02-18T15:17:53.747Z,825
2024-02-18T15:18:53.917Z,800
2024-02-18T15:19:53.767Z,839.17
2024-02-18T15:21:53.774Z,940.83
2024-02-18T15:22:55.464Z,940
2024-02-18T15:23:58.646Z,864.17
2024-02-18T15:25:53.758Z,849.17
2024-02-18T15:26:53.730Z,851.67
2024-02-18T15:27:53.763Z,828.33
2024-02-18T15:28:53.722Z,822.5
2024-02-18T15:29:53.741Z,912.5
2024-02-18T15:31:53.790Z,970
2024-02-18T15:32:53.761Z,830.83
2024-02-18T15:34:54.033Z,960
2024-02-18T15:36:53.764Z,784.17
2024-02-18T15:37:53.722Z,739.17
2024-02-18T15:38:53.769Z,631.67
2024-02-18T15:39:53.781Z,647.5
2024-02-18T15:40:54.112Z,605
2024-02-18T15:42:53.749Z,600
2024-02-18T15:43:53.724Z,553.33
2024-02-18T15:44:55.966Z,508.33
2024-02-18T15:45:58.949Z,550
2024-02-18T15:47:53.861Z,481.67
2024-02-18T15:48:53.859Z,461.67
2024-02-18T15:49:53.843Z,457.5
2024-02-18T15:51:53.749Z,487.5
2024-02-18T15:52:53.734Z,393.33
2024-02-18T15:54:53.794Z,353.33
2024-02-18T15:55:57.689Z,354.17
2024-02-18T15:56:53.735Z,410.83
2024-02-18T15:57:53.815Z,445
2024-02-18T15:58:53.723Z,425.83
2024-02-18T15:59:53.732Z,377.5
2024-02-18T16:00:53.791Z,331.67
2024-02-18T16:01:54.518Z,310.83
2024-02-18T16:03:53.838Z,383.33
2024-02-18T16:04:53.922Z,379.17
2024-02-18T16:05:56.148Z,355.83
2024-02-18T16:06:59.137Z,365
2024-02-18T16:08:53.766Z,398.33
2024-02-18T16:09:53.794Z,392.5
2024-02-18T16:10:53.762Z,373.33
2024-02-18T16:11:53.740Z,339.17
2024-02-18T16:13:53.809Z,320.83
2024-02-18T16:14:53.833Z,259.17
2024-02-18T16:15:53.880Z,233.33
2024-02-18T16:16:53.738Z,250
2024-02-18T16:17:53.892Z,250
2024-02-18T16:18:53.985Z,230.83
2024-02-18T16:19:53.785Z,238.33
2024-02-18T16:20:53.772Z,248.33
2024-02-18T16:21:53.761Z,278.33
2024-02-18T16:22:53.733Z,369.17
2024-02-18T16:24:53.773Z,415.83
2024-02-18T16:25:53.736Z,420.83
2024-02-18T16:26:54.411Z,393.33
2024-02-18T16:27:57.631Z,445.83